Terminal Aerodrome Forecast
Issued by NWS

Home | Current Version | Previous Version | Text Only | Print | Product List | Glossary On
Versions: 1 2 3 4 5 6 7 8 9 10 11 12 13 14 15 16 17 18 19 20 21 22
000
FTUS45 KSLC 300322 AAB
TAFSGU
TAF AMD
KSGU 300322Z 3003/3024 03009KT P6SM -SHRA VCTS SCT040CB BKN070
      TEMPO 3003/3004 VRB10G20KT
     FM300400 12007KT P6SM VCSH SCT050 BKN090
     FM300700 11006KT P6SM -SHRA BKN060 OVC090
     FM301800 07010KT P6SM VCSH BKN060
      AMD LTD TO CLD VIS AND WIND=

USA.gov is the U.S. government's official web portal to all federal, state and local government web resources and services.